Time;durP1;ratioP1;P1;durP2;ratioP2;P2;SDS_P1;SDS_P2;PMS_P1;PMS_P2;Temp;Humidity;BMP_temperature;BMP_pressure;BME280_temperature;BME280_humidity;BME280_pressure;Samples;Min_cycle;Max_cycle;Signal;HPM_P1;HPM_P2
2022/06/23 00:03:40;;;;;;;3.47;1.77;;;23.10;38.40;;;21.05;39.67;100943.72;12242788;19;20746;-79
2022/06/23 00:07:51;;;;;;;1.70;1.55;;;23.00;38.40;;;21.09;39.93;100958.41;12242748;19;20476;-79
2022/06/23 00:11:53;;;;;;;2.13;1.55;;;22.90;38.40;;;20.91;39.49;100947.72;12242215;19;20395;-79
2022/06/23 00:15:55;;;;;;;2.45;1.90;;;22.90;38.50;;;20.97;39.71;100964.88;12239954;19;20025;-79
2022/06/23 00:20:05;;;;;;;2.83;1.83;;;22.80;38.60;;;20.64;40.18;100911.34;12237400;19;20077;-79
2022/06/23 00:24:20;;;;;;;4.28;1.70;;;22.80;38.90;;;20.83;40.37;100955.56;12243208;19;20014;-79
2022/06/23 00:28:27;;;;;;;2.03;1.90;;;22.40;39.00;;;20.95;40.08;100982.75;12240328;19;20014;-79
2022/06/23 00:32:30;;;;;;;1.63;1.50;;;22.60;38.90;;;20.74;40.19;100954.63;12242411;19;20081;-79
2022/06/23 00:36:46;;;;;;;1.98;1.75;;;22.60;39.00;;;20.87;40.45;100983.47;12239692;19;20019;-79
2022/06/23 00:40:49;;;;;;;2.13;1.77;;;22.60;39.20;;;20.83;40.52;100978.63;12238953;19;20026;-79
2022/06/23 00:45:19;;;;;;;1.60;1.50;;;22.50;38.90;;;20.84;40.77;100982.94;12238409;19;20010;-79
2022/06/23 00:49:45;;;;;;;1.92;1.50;;;22.40;39.10;;;20.80;40.35;100987.72;12240225;19;20014;-79
2022/06/23 00:54:31;;;;;;;2.15;1.50;;;22.40;39.40;;;20.69;40.58;100974.63;12238265;19;20521;-79
2022/06/23 00:58:46;;;;;;;2.45;1.67;;;22.40;39.30;;;20.70;40.89;100989.56;12239882;19;20019;-79
2022/06/23 01:03:14;;;;;;;2.13;1.43;;;22.40;39.30;;;20.57;40.88;100971.28;12237081;19;20022;-79
2022/06/23 01:08:01;;;;;;;1.73;1.63;;;22.30;39.30;;;20.46;40.80;100960.81;12239651;19;20411;-79
2022/06/23 01:12:14;;;;;;;;;;;22.30;39.40;;;20.55;40.00;100975.91;12244982;19;20011;-79
2022/06/23 01:16:26;;;;;;;2.35;1.20;;;22.30;38.10;;;20.52;41.01;100981.47;12250902;19;20268;-79
2022/06/23 01:20:45;;;;;;;1.92;1.58;;;22.30;39.40;;;20.49;41.01;100992.34;12246400;19;20019;-79
2022/06/23 01:25:01;;;;;;;2.17;1.63;;;22.20;39.40;;;20.47;40.85;100991.69;12252188;19;20014;-79
2022/06/23 01:29:30;;;;;;;2.95;1.65;;;22.20;39.70;;;20.40;41.27;100972.84;12247200;19;20023;-79
2022/06/23 01:33:44;;;;;;;2.90;1.50;;;22.10;39.70;;;20.42;41.09;100980.66;12250767;19;20400;-79
2022/06/23 01:37:59;;;;;;;1.75;1.50;;;22.10;39.50;;;20.27;41.37;100957.22;12247724;19;20015;-79
2022/06/23 01:42:15;;;;;;;1.57;1.47;;;22.20;39.80;;;20.26;41.16;100958.19;12250633;19;20364;-79
2022/06/23 01:46:26;;;;;;;1.83;1.67;;;22.00;39.70;;;20.31;41.53;100986.97;12247692;19;20006;-79
2022/06/23 01:50:48;;;;;;;2.85;1.90;;;22.00;39.90;;;20.20;41.92;100976.47;12246662;19;20397;-79
2022/06/23 01:55:04;;;;;;;1.73;1.48;;;21.90;39.80;;;20.21;41.96;100983.47;12249123;19;20476;-79
2022/06/23 01:59:31;;;;;;;1.80;1.70;;;22.10;39.90;;;20.16;41.87;100981.22;12237576;19;20031;-79
2022/06/23 02:03:41;;;;;;;2.00;1.52;;;21.90;40.10;;;20.07;42.13;100979.44;12251366;19;20010;-79
2022/06/23 02:07:54;;;;;;;1.65;1.52;;;22.10;40.10;;;19.81;42.12;100958.78;12244355;19;20082;-79
2022/06/23 02:11:57;;;;;;;1.50;1.40;;;21.80;40.10;;;19.79;42.05;100967.84;12248524;19;20028;-79
2022/06/23 02:16:13;;;;;;;3.72;1.98;;;21.70;40.00;;;19.94;41.98;101000.09;12245229;19;20011;-79
2022/06/23 02:20:47;;;;;;;1.70;1.60;;;21.70;40.10;;;19.88;41.95;101004.13;12244665;19;20018;-79
2022/06/23 02:25:07;;;;;;;2.72;1.80;;;21.60;40.30;;;19.80;42.35;101006.63;12247620;19;20525;-80
2022/06/23 02:29:35;;;;;;;1.70;1.60;;;21.60;40.20;;;19.63;42.03;100985.09;12245159;19;20011;-79
2022/06/23 02:33:52;;;;;;;2.38;1.80;;;21.50;40.30;;;19.64;42.59;101001.84;12249411;19;20023;-79
2022/06/23 02:38:31;;;;;;;1.80;1.63;;;21.40;40.30;;;19.73;42.55;101034.66;12245761;19;20021;-79
2022/06/23 02:42:38;;;;;;;2.38;1.42;;;21.40;40.50;;;19.56;42.30;101020.22;12244968;19;20392;-79
2022/06/23 02:47:16;;;;;;;2.42;2.22;;;21.30;40.40;;;19.54;42.57;101030.09;12246146;19;20015;-79
2022/06/23 02:52:22;;;;;;;3.15;1.42;;;21.70;40.80;;;19.48;42.60;101034.13;12240496;19;20018;-79
2022/06/23 02:56:47;;;;;;;;;;;21.20;40.60;;;19.44;41.70;101030.94;12243017;19;20485;-79
2022/06/23 03:01:11;;;;;;;1.75;1.52;;;21.20;39.40;;;19.34;42.82;101032.69;12239081;19;19924;-79
2022/06/23 03:05:40;;;;;;;1.75;1.50;;;21.20;40.60;;;19.22;42.64;101034.59;12245193;19;20033;-79
2022/06/23 03:09:51;;;;;;;1.70;1.58;;;21.10;40.70;;;19.18;43.08;101042.94;12239623;19;20018;-79
2022/06/23 03:13:58;;;;;;;2.00;1.80;;;21.00;40.70;;;19.06;42.96;101023.66;12244533;19;20015;-79
2022/06/23 03:18:16;;;;;;;2.30;1.67;;;21.00;40.80;;;19.12;43.39;101038.16;12240776;19;20027;-79
2022/06/23 03:22:58;;;;;;;2.22;1.35;;;21.00;41.20;;;19.13;43.21;101046.00;12245307;19;20025;-79
2022/06/23 03:27:27;;;;;;;1.75;1.30;;;20.90;41.20;;;19.02;43.43;101032.84;12240007;19;20015;-79
2022/06/23 03:31:56;;;;;;;3.90;1.50;;;20.90;41.20;;;19.04;43.52;101046.78;12241792;19;20018;-79
2022/06/23 03:36:13;;;;;;;1.92;1.60;;;20.80;41.30;;;18.68;43.57;100988.06;12239398;19;20018;-79
2022/06/23 03:45:17;;;;;;;1.63;1.38;;;20.80;41.80;;;18.98;43.60;101042.88;12238146;19;20007;-79
2022/06/23 03:49:51;;;;;;;3.80;1.20;;;20.70;41.40;;;18.98;43.59;101050.81;12240294;19;20018;-79
2022/06/23 03:54:03;;;;;;;2.35;1.48;;;20.70;41.40;;;19.01;43.83;101057.66;12240999;19;20030;-79
2022/06/23 03:58:22;;;;;;;3.67;2.03;;;20.70;41.30;;;18.98;43.96;101068.47;12238590;19;20014;-79
2022/06/23 04:02:34;;;;;;;2.38;1.60;;;20.70;41.80;;;18.90;43.96;101055.91;12239057;19;20021;-79
2022/06/23 04:06:44;;;;;;;2.70;1.73;;;20.80;41.70;;;18.67;43.99;101025.25;12240381;19;20006;-79
2022/06/23 04:10:48;;;;;;;4.03;1.50;;;20.70;41.70;;;18.72;43.74;101047.69;12230518;19;20010;-80
2022/06/23 04:14:55;;;;;;;3.25;1.70;;;20.70;41.80;;;18.87;44.21;101073.84;12238838;19;20006;-80
2022/06/23 04:18:58;;;;;;;4.30;2.00;;;20.60;41.80;;;18.72;44.16;101063.56;12227185;19;20349;-80
2022/06/23 04:23:04;;;;;;;3.53;1.83;;;20.60;41.90;;;18.71;44.50;101067.19;12236805;19;20015;-80
2022/06/23 04:27:18;;;;;;;2.13;1.83;;;20.60;42.10;;;18.79;44.70;101085.06;12234476;19;20014;-80
2022/06/23 04:31:32;;;;;;;2.15;1.48;;;20.60;42.20;;;18.84;44.67;101088.16;12218267;19;20510;-81
2022/06/23 04:35:39;;;;;;;4.10;1.75;;;20.60;42.60;;;18.81;44.57;101087.59;12232901;19;20349;-81
2022/06/23 04:39:45;;;;;;;3.92;1.58;;;20.80;42.60;;;18.93;44.81;101094.50;12232652;19;20034;-81
2022/06/23 04:44:11;;;;;;;4.03;1.60;;;20.70;42.80;;;18.97;45.03;101098.56;12230209;19;20014;-82
2022/06/23 04:48:53;;;;;;;1.55;1.45;;;20.70;43.20;;;19.11;44.63;101103.53;12231774;19;20018;-81
2022/06/23 04:52:57;;;;;;;4.13;1.83;;;20.70;43.20;;;19.08;44.68;101084.41;12230212;19;20006;-81
2022/06/23 04:57:22;;;;;;;2.83;1.48;;;20.80;43.20;;;19.23;44.93;101080.47;12231851;19;20014;-81
2022/06/23 05:01:34;;;;;;;1.77;1.53;;;20.90;42.90;;;19.41;45.05;101097.38;12226873;19;20010;-81
2022/06/23 05:05:37;;;;;;;2.55;1.55;;;21.00;43.30;;;19.57;44.89;101104.84;12221866;19;20523;-81
2022/06/23 05:09:41;;;;;;;2.10;1.77;;;21.20;43.20;;;19.58;44.90;101097.75;12216636;19;20018;-81
2022/06/23 05:13:48;;;;;;;1.50;1.40;;;21.30;43.10;;;19.87;44.99;101119.94;12225651;19;20014;-81
2022/06/23 05:17:59;;;;;;;1.88;1.40;;;21.60;43.00;;;19.98;44.44;101118.97;12224184;19;20730;-82
2022/06/23 05:22:36;;;;;;;6.60;1.80;;;21.60;41.90;;;20.12;44.65;101128.34;12227523;19;20056;-81
2022/06/23 05:26:48;;;;;;;3.75;1.58;;;21.70;42.10;;;20.13;44.42;101113.28;12225515;19;20082;-81
2022/06/23 05:31:06;;;;;;;2.67;1.33;;;21.80;42.00;;;20.40;44.68;101126.69;12221833;19;20017;-81
2022/06/23 05:35:29;;;;;;;1.70;1.60;;;21.90;41.90;;;20.58;44.26;101118.94;12224200;19;20017;-81
2022/06/23 05:40:08;;;;;;;2.63;1.80;;;22.10;41.40;;;20.86;44.22;101135.78;12222941;19;20011;-82
2022/06/23 05:44:25;;;;;;;2.55;2.13;;;22.30;41.50;;;20.95;43.96;101127.00;12225307;19;20024;-82
2022/06/23 05:48:41;;;;;;;3.47;1.40;;;22.40;41.30;;;21.13;44.07;101127.06;12222859;19;20078;-81
2022/06/23 05:53:11;;;;;;;3.55;1.55;;;22.60;41.10;;;21.32;43.90;101118.22;12223216;19;20376;-80
2022/06/23 05:57:20;;;;;;;1.95;1.40;;;22.80;41.30;;;21.33;43.64;101085.38;12227437;19;20018;-81
2022/06/23 06:01:41;;;;;;;3.95;1.50;;;23.20;40.90;;;21.74;43.56;101115.16;12229903;19;20023;-81
2022/06/23 06:05:46;;;;;;;2.22;1.65;;;23.20;40.90;;;22.01;43.48;101135.56;12233828;19;20096;-83
2022/06/23 06:09:50;;;;;;;2.20;1.35;;;23.50;40.50;;;22.08;42.98;101126.00;12230460;19;20026;-81
2022/06/23 06:13:54;;;;;;;2.63;2.40;;;23.60;40.40;;;22.37;43.18;101146.28;12235661;19;20018;-80
2022/06/23 06:18:23;;;;;;;2.42;1.55;;;23.70;40.20;;;22.48;42.98;101121.25;12230227;19;20011;-81
2022/06/23 06:23:08;;;;;;;2.85;1.52;;;24.00;40.40;;;22.81;42.84;101137.50;12233762;19;20018;-80
2022/06/23 06:27:13;;;;;;;1.67;1.43;;;24.20;39.90;;;22.92;42.57;101131.94;12232136;19;20077;-80
2022/06/23 06:31:38;;;;;;;2.70;1.98;;;24.40;39.80;;;23.14;42.47;101150.13;12230975;19;20023;-80
2022/06/23 06:35:43;;;;;;;2.10;1.85;;;24.50;39.60;;;23.33;42.51;101158.88;12237099;19;20023;-81
2022/06/23 06:39:54;;;;;;;2.03;1.38;;;24.70;39.60;;;23.40;42.06;101150.09;12235548;19;20038;-80
2022/06/23 06:43:57;;;;;;;2.67;1.52;;;24.90;39.40;;;23.45;42.40;101128.31;12240941;19;20466;-81
2022/06/23 06:48:01;;;;;;;4.10;1.55;;;25.10;39.30;;;23.66;42.03;101143.91;12238624;19;20014;-82
2022/06/23 06:52:03;;;;;;;1.90;1.75;;;25.30;39.00;;;23.55;41.96;101120.19;12234408;19;20775;-82
2022/06/23 06:56:22;;;;;;;9.30;1.80;;;25.30;38.80;;;23.86;41.33;101160.50;12224927;19;20021;-84
2022/06/23 07:00:34;;;;;;;3.40;1.58;;;25.40;38.40;;;23.97;41.25;101157.53;12228617;19;20534;-83
2022/06/23 07:04:57;;;;;;;4.38;2.47;;;25.50;38.40;;;24.04;41.27;101152.41;12232307;19;20014;-83
2022/06/23 07:09:20;;;;;;;4.38;1.88;;;25.60;38.30;;;24.14;41.37;101149.59;12230641;19;20021;-80
2022/06/23 07:13:38;;;;;;;2.55;1.52;;;25.80;38.40;;;24.46;41.46;101172.88;12231414;19;20018;-80
2022/06/23 07:17:46;;;;;;;3.78;1.63;;;25.90;38.50;;;24.64;41.31;101170.91;12232886;19;20536;-80
2022/06/23 07:21:58;;;;;;;2.13;1.50;;;26.10;38.20;;;24.56;41.18;101130.84;12232531;19;20085;-81
2022/06/23 07:26:38;;;;;;;2.08;1.80;;;26.20;38.30;;;25.07;41.02;101171.56;12229219;19;20018;-80
2022/06/23 07:30:46;;;;;;;2.45;1.67;;;26.40;38.30;;;25.25;40.81;101167.88;12227370;19;20661;-80
2022/06/23 07:34:56;;;;;;;3.60;1.90;;;26.70;38.50;;;25.39;40.43;101160.00;12229172;19;20019;-80
2022/06/23 07:39:10;;;;;;;2.53;2.05;;;26.80;37.70;;;25.53;40.55;101166.47;12226470;19;20141;-80
2022/06/23 07:43:29;;;;;;;5.45;1.83;;;27.00;37.80;;;25.68;40.01;101150.56;12228526;19;20033;-80
2022/06/23 07:47:31;;;;;;;6.72;2.25;;;27.10;37.60;;;25.87;39.96;101168.06;12228308;19;20743;-79
2022/06/23 07:51:36;;;;;;;2.15;1.60;;;27.30;37.30;;;25.79;39.62;101142.16;12229773;19;20014;-80
2022/06/23 07:55:42;;;;;;;1.98;1.80;;;27.50;37.20;;;25.83;39.39;101131.94;12227742;19;20014;-81
2022/06/23 07:59:50;;;;;;;2.22;1.60;;;27.50;37.20;;;26.22;39.87;101171.22;12228206;19;20014;-81
2022/06/23 08:04:03;;;;;;;4.55;1.50;;;27.60;37.30;;;26.41;39.78;101164.56;12228482;19;20018;-80
2022/06/23 08:08:12;;;;;;;2.75;1.50;;;27.80;37.10;;;26.60;39.18;101163.28;12229629;19;20029;-80
2022/06/23 08:16:49;;;;;;;4.43;1.45;;;28.10;36.80;;;27.00;39.28;101156.75;12233238;19;20049;-80
2022/06/23 08:21:10;;;;;;;1.63;1.37;;;28.40;36.80;;;27.29;38.49;101169.41;12231799;19;20023;-81
2022/06/23 08:25:15;;;;;;;3.22;1.88;;;28.50;36.60;;;27.31;38.75;101167.38;12233531;19;20102;-80
2022/06/23 08:29:24;;;;;;;1.73;1.48;;;28.80;36.30;;;27.36;38.42;101148.88;12233891;19;20021;-79
2022/06/23 08:33:27;;;;;;;4.63;1.75;;;28.90;36.60;;;27.54;38.38;101150.34;12234974;19;20678;-79
2022/06/23 08:37:36;;;;;;;4.95;1.88;;;29.00;36.50;;;27.68;37.89;101130.75;12234450;19;20022;-79
2022/06/23 08:42:13;;;;;;;1.30;1.20;;;29.20;36.00;;;28.18;37.79;101174.72;12230814;19;20623;-81
2022/06/23 08:46:37;;;;;;;2.10;1.55;;;29.50;35.80;;;28.27;37.46;101177.28;12228154;19;20051;-80
2022/06/23 08:50:58;;;;;;;3.47;1.50;;;29.60;35.20;;;28.12;37.38;101148.63;12225509;19;20034;-80
2022/06/23 08:55:15;;;;;;;2.15;1.40;;;29.70;35.40;;;28.21;36.78;101155.53;12226529;19;20025;-80
2022/06/23 09:00:02;;;;;;;2.38;1.50;;;29.70;35.10;;;28.36;37.06;101143.91;12225381;19;20698;-81
2022/06/23 09:04:40;;;;;;;3.75;1.70;;;29.80;35.10;;;28.64;36.96;101157.44;12226105;19;20014;-80
2022/06/23 09:09:35;;;;;;;2.05;1.35;;;30.00;35.40;;;28.77;36.80;101162.94;12226691;19;20018;-81
2022/06/23 09:13:48;;;;;;;3.08;1.30;;;30.10;34.60;;;28.89;36.37;101166.75;12226149;19;20776;-80
2022/06/23 09:18:38;;;;;;;2.45;1.45;;;30.30;34.70;;;29.07;36.35;101157.41;12223302;19;20018;-80
2022/06/23 09:23:12;;;;;;;5.78;1.35;;;30.40;34.70;;;29.18;35.77;101148.78;12223985;19;20056;-80
2022/06/23 09:27:35;;;;;;;1.58;1.20;;;30.50;34.10;;;29.19;35.37;101149.59;12225637;19;20077;-81
2022/06/23 09:32:06;;;;;;;1.60;0.98;;;30.60;33.70;;;29.34;35.53;101148.47;12226436;19;20405;-81
2022/06/23 09:36:35;;;;;;;2.83;1.10;;;30.60;34.20;;;29.54;35.34;101142.34;12238081;19;20007;-80
2022/06/23 09:40:54;;;;;;;1.33;1.02;;;30.80;33.80;;;29.60;34.64;101140.72;12234744;19;20026;-80
2022/06/23 09:45:24;;;;;;;2.70;1.23;;;30.90;33.10;;;29.67;34.70;101142.44;12236028;19;20506;-80
2022/06/23 09:49:57;;;;;;;1.33;1.25;;;31.10;33.40;;;29.67;34.33;101112.00;12236317;19;20018;-81
2022/06/23 09:54:45;;;;;;;4.00;1.20;;;31.20;32.80;;;29.96;34.25;101135.94;12236531;19;20014;-80
2022/06/23 09:59:21;;;;;;;2.45;1.05;;;31.30;33.10;;;30.13;33.89;101132.88;12235677;19;20022;-80
2022/06/23 10:03:57;;;;;;;3.15;1.20;;;31.40;32.90;;;30.24;33.95;101132.28;12236505;19;20021;-81
2022/06/23 10:08:29;;;;;;;2.35;1.30;;;31.50;32.70;;;30.36;33.61;101127.16;12236304;19;20085;-80
2022/06/23 10:12:54;;;;;;;3.35;1.17;;;31.70;32.60;;;30.47;33.42;101133.78;12235229;19;20038;-80
2022/06/23 10:17:01;;;;;;;1.20;0.95;;;31.80;32.20;;;30.53;32.78;101119.47;12234708;19;20089;-80
2022/06/23 10:21:18;;;;;;;1.55;0.85;;;31.90;31.30;;;30.54;32.45;101126.53;12231922;19;20010;-80
2022/06/23 10:25:58;;;;;;;5.68;1.00;;;31.90;31.30;;;30.52;31.85;101117.84;12234462;19;20021;-80
2022/06/23 10:30:40;;;;;;;1.60;1.10;;;31.90;30.90;;;30.51;32.11;101102.69;12233063;19;20363;-80
2022/06/23 10:35:14;;;;;;;1.45;1.20;;;32.00;31.10;;;30.52;32.01;101107.88;12232640;19;20364;-81
2022/06/23 10:39:46;;;;;;;2.28;1.00;;;32.00;30.90;;;30.55;31.96;101102.06;12233578;19;20094;-81
2022/06/23 10:44:15;;;;;;;2.20;1.13;;;32.00;30.70;;;30.53;31.95;101082.56;12231727;19;20021;-81
2022/06/23 10:48:58;;;;;;;1.20;1.10;;;32.00;31.10;;;30.78;31.74;101104.31;12228615;19;20057;-80
2022/06/23 10:53:16;;;;;;;1.10;1.00;;;32.10;31.10;;;30.90;31.54;101096.47;12229108;19;20022;-81
2022/06/23 10:57:41;;;;;;;1.20;1.10;;;32.20;31.40;;;31.05;31.85;101090.81;12232765;19;20073;-81
2022/06/23 11:02:04;;;;;;;1.20;1.15;;;32.30;31.70;;;31.28;31.56;101101.97;12212382;19;20007;-81
2022/06/23 11:06:33;;;;;;;3.53;1.25;;;32.50;31.70;;;31.44;31.08;101094.50;12221647;19;20443;-81
2022/06/23 11:11:04;;;;;;;3.17;1.55;;;32.70;31.00;;;31.58;31.10;101095.25;12232153;19;20011;-78
2022/06/23 11:15:12;;;;;;;2.13;1.05;;;32.80;31.00;;;31.62;30.88;101085.69;12242049;19;20475;-82
2022/06/23 11:20:16;;;;;;;1.10;1.00;;;32.90;30.50;;;31.65;31.21;101086.09;12236737;19;20390;-82
2022/06/23 11:25:19;;;;;;;1.83;1.05;;;33.00;31.00;;;31.72;31.06;101076.06;12238406;19;20015;-81
2022/06/23 11:30:04;;;;;;;1.30;1.08;;;33.00;30.70;;;31.78;30.37;101078.94;12231797;19;20015;-79
2022/06/23 11:34:47;;;;;;;1.20;1.08;;;33.10;30.60;;;31.77;30.69;101075.41;12231735;19;20018;-81
2022/06/23 11:39:22;;;;;;;1.30;1.08;;;33.10;30.60;;;31.74;30.04;101052.38;12214393;19;20018;-80
2022/06/23 11:44:09;;;;;;;1.33;1.00;;;33.10;30.50;;;31.77;30.20;101072.72;12198876;19;20102;-79
2022/06/23 11:48:44;;;;;;;1.90;1.20;;;33.10;30.40;;;31.75;29.88;101075.63;12220999;19;20020;-80
2022/06/23 11:53:41;;;;;;;1.20;1.10;;;33.10;30.20;;;31.78;30.04;101066.25;12214748;19;20019;-81
2022/06/23 11:58:13;;;;;;;1.58;1.23;;;33.10;30.00;;;31.86;29.92;101055.19;12206017;19;20014;-81
2022/06/23 12:02:15;;;;;;;1.05;0.98;;;33.10;30.20;;;31.85;29.85;101047.34;12216088;19;20010;-79
2022/06/23 12:06:47;;;;;;;1.92;1.20;;;33.20;29.90;;;32.01;29.21;101065.75;12217539;19;20074;-81
2022/06/23 12:10:49;;;;;;;1.23;1.10;;;33.20;30.00;;;32.01;29.40;101067.63;12218342;19;20019;-80
2022/06/23 12:14:51;;;;;;;2.00;1.10;;;33.30;30.00;;;31.79;29.23;101007.69;12206138;19;20367;-82
2022/06/23 12:18:58;;;;;;;1.80;1.55;;;33.40;29.70;;;32.13;28.99;101050.47;12211014;19;20029;-81
2022/06/23 12:23:15;;;;;;;1.33;0.98;;;33.40;29.80;;;32.24;29.11;101048.13;12219727;19;20495;-82
2022/06/23 12:27:32;;;;;;;1.30;1.20;;;33.50;30.00;;;32.28;28.96;101044.75;12216211;19;20089;-82
2022/06/23 12:31:44;;;;;;;0.73;0.73;;;33.50;29.70;;;32.21;28.51;101035.03;12219044;19;20472;-82
2022/06/23 12:36:26;;;;;;;1.25;1.10;;;33.60;29.80;;;32.09;28.34;101011.44;12215522;19;20014;-80
2022/06/23 12:41:12;;;;;;;1.23;1.02;;;33.50;29.60;;;32.35;28.44;101033.88;12217641;19;20018;-82
2022/06/23 12:45:43;;;;;;;4.85;0.80;;;33.60;29.70;;;32.32;28.09;101035.13;12213577;19;20025;-82
2022/06/23 12:50:03;;;;;;;2.30;0.93;;;33.60;29.40;;;32.41;28.25;101035.72;12219587;19;20029;-81
2022/06/23 12:54:30;;;;;;;1.52;1.17;;;33.60;29.70;;;32.51;28.33;101027.94;12209331;19;20010;-82
2022/06/23 12:58:47;;;;;;;0.80;0.80;;;33.70;29.80;;;32.47;27.92;101007.81;12217957;19;20022;-82
2022/06/23 13:02:59;;;;;;;0.95;0.85;;;33.70;29.10;;;32.51;28.10;101000.88;12216261;19;20015;-83
2022/06/23 13:07:22;;;;;;;0.90;0.85;;;33.80;29.10;;;32.66;27.91;101015.94;12217169;19;20110;-82
2022/06/23 13:12:06;;;;;;;0.88;0.88;;;33.90;29.60;;;32.66;27.91;101010.53;12226572;19;20062;-82
2022/06/23 13:16:32;;;;;;;1.05;0.95;;;33.90;29.40;;;32.59;27.58;100984.41;12218484;19;20536;-82
2022/06/23 13:21:10;;;;;;;0.90;0.90;;;34.00;29.30;;;32.84;27.83;100983.50;12225177;19;20034;-81
2022/06/23 13:25:32;;;;;;;1.27;1.10;;;34.10;29.40;;;33.02;27.26;100996.22;12228106;19;20750;-82
2022/06/23 13:30:08;;;;;;;1.08;0.95;;;34.10;28.90;;;32.96;27.08;100978.16;12230825;19;20015;-83
2022/06/23 13:34:29;;;;;;;0.93;0.90;;;34.20;28.60;;;32.77;26.73;100947.56;12226830;19;20017;-82
2022/06/23 13:39:14;;;;;;;1.10;0.90;;;34.30;28.60;;;32.91;27.05;100986.94;12227991;19;20014;-82
2022/06/23 13:43:52;;;;;;;1.00;0.90;;;34.20;28.90;;;32.93;26.92;100976.72;12226604;19;20006;-80
2022/06/23 13:48:18;;;;;;;4.78;0.90;;;34.10;28.80;;;32.98;26.67;100976.88;12224848;19;20046;-83
2022/06/23 13:52:35;;;;;;;0.98;0.90;;;34.20;28.60;;;32.91;26.30;100968.00;12216754;19;20014;-82
2022/06/23 13:57:11;;;;;;;0.77;0.77;;;34.20;28.60;;;32.95;26.55;100954.84;12226261;19;20014;-83
2022/06/23 14:01:29;;;;;;;0.98;0.98;;;34.10;28.40;;;33.00;26.66;100955.84;12223417;19;20106;-82
2022/06/23 14:06:07;;;;;;;0.93;0.70;;;34.10;28.50;;;33.04;26.28;100951.63;12228283;19;20015;-81
2022/06/23 14:10:30;;;;;;;0.98;0.98;;;34.00;28.70;;;33.04;26.16;100927.28;12227036;19;20474;-80
2022/06/23 14:14:39;;;;;;;0.98;0.80;;;34.30;28.40;;;33.03;26.44;100924.81;12230238;19;20515;-81
2022/06/23 14:19:07;;;;;;;1.35;0.90;;;34.30;28.40;;;33.00;26.22;100920.69;12228336;19;20011;-81
2022/06/23 14:23:41;;;;;;;2.45;1.00;;;34.30;28.60;;;33.04;26.05;100932.69;12227657;19;20040;-83
2022/06/23 14:28:19;;;;;;;1.55;1.00;;;34.30;28.30;;;33.11;26.37;100926.34;12229674;19;20567;-82
2022/06/23 14:32:44;;;;;;;1.92;0.98;;;34.30;29.00;;;33.07;25.97;100936.81;12220567;19;20046;-83
2022/06/23 14:36:57;;;;;;;0.70;0.70;;;34.30;28.20;;;33.09;26.19;100937.41;12225532;19;20029;-81
2022/06/23 14:42:13;;;;;;;0.88;0.80;;;34.30;28.30;;;33.10;25.73;100938.25;12220133;19;20014;-82
2022/06/23 14:46:48;;;;;;;1.30;0.93;;;34.20;28.20;;;33.10;25.80;100930.13;12219784;19;20082;-82
2022/06/23 14:51:13;;;;;;;1.17;1.00;;;34.30;28.50;;;33.14;25.66;100928.63;12221187;19;20480;-82
2022/06/23 14:55:42;;;;;;;0.77;0.77;;;34.30;28.40;;;33.13;25.45;100914.25;12219000;19;20022;-81
2022/06/23 15:00:10;;;;;;;0.80;0.80;;;34.30;28.30;;;33.01;25.90;100889.03;12222243;19;20028;-82
2022/06/23 15:04:54;;;;;;;1.20;1.00;;;34.30;28.30;;;33.21;25.98;100910.38;12221431;19;20010;-80
2022/06/23 15:09:51;;;;;;;0.80;0.80;;;34.30;28.40;;;33.18;25.97;100891.91;12217924;19;20019;-82
2022/06/23 15:14:07;;;;;;;0.63;0.63;;;34.40;28.60;;;33.19;25.17;100909.78;12216820;19;20018;-82
2022/06/23 15:18:44;;;;;;;3.78;0.98;;;34.30;28.10;;;33.09;25.42;100896.81;12220867;19;20090;-81
2022/06/23 15:23:10;;;;;;;1.30;1.08;;;34.30;28.00;;;33.16;25.04;100896.72;12221970;19;20019;-80
2022/06/23 15:27:37;;;;;;;0.88;0.70;;;34.30;27.80;;;33.08;25.26;100899.75;12224523;19;20111;-80
2022/06/23 15:32:17;;;;;;;0.65;0.65;;;34.30;27.80;;;33.04;25.51;100900.22;12217927;19;20031;-79
2022/06/23 15:36:40;;;;;;;1.00;1.00;;;34.20;28.20;;;33.06;25.33;100889.16;12220289;19;20457;-82
2022/06/23 15:40:50;;;;;;;2.40;0.75;;;34.20;28.20;;;33.03;25.02;100878.81;12219831;19;20018;-81
2022/06/23 15:45:31;;;;;;;0.88;0.88;;;34.20;28.00;;;33.15;25.22;100889.66;12220626;19;20014;-82
2022/06/23 15:49:51;;;;;;;1.35;0.73;;;34.30;28.00;;;33.14;25.05;100879.91;12223929;19;20085;-81
2022/06/23 15:53:58;;;;;;;2.42;1.45;;;34.30;27.90;;;33.10;25.31;100881.41;12221076;19;20348;-81
2022/06/23 15:58:26;;;;;;;1.10;1.00;;;34.30;28.00;;;33.09;24.77;100875.16;12221406;19;20015;-81
2022/06/23 16:03:07;;;;;;;2.20;0.77;;;34.30;27.90;;;33.01;24.73;100851.97;12216404;19;20021;-81
2022/06/23 16:07:19;;;;;;;0.95;0.90;;;34.30;28.00;;;33.01;25.43;100856.56;12223025;19;20018;-82
2022/06/23 16:11:40;;;;;;;1.45;1.20;;;34.30;27.90;;;33.08;24.50;100878.09;12221405;19;20087;-81
2022/06/23 16:15:45;;;;;;;0.90;0.90;;;34.30;27.70;;;32.93;25.15;100859.56;12213223;19;20049;-81
2022/06/23 16:20:10;;;;;;;1.08;0.85;;;34.20;27.80;;;32.98;24.81;100876.75;12220821;19;20042;-80
2022/06/23 16:24:52;;;;;;;1.25;1.00;;;34.20;27.90;;;32.98;24.98;100874.03;12221939;19;20035;-80
2022/06/23 16:29:05;;;;;;;1.02;0.88;;;34.10;28.10;;;32.85;24.62;100858.00;12221871;19;20365;-83
2022/06/23 16:33:45;;;;;;;0.90;0.90;;;34.10;27.70;;;32.79;24.58;100858.91;12221997;19;20018;-82
2022/06/23 16:38:14;;;;;;;0.88;0.88;;;34.00;27.90;;;32.77;24.89;100861.00;12222751;19;20038;-81
2022/06/23 16:42:49;;;;;;;1.10;1.00;;;34.00;27.90;;;32.81;24.69;100863.03;12223084;19;20025;-80
2022/06/23 16:47:36;;;;;;;4.40;0.85;;;34.00;27.80;;;32.78;24.85;100862.66;12226894;19;20018;-81
2022/06/23 16:52:33;;;;;;;1.50;0.80;;;33.90;27.90;;;32.72;24.57;100864.41;12223521;19;20409;-80
2022/06/23 16:56:49;;;;;;;1.05;0.90;;;33.90;27.90;;;32.61;25.03;100857.88;12214357;19;20038;-81
2022/06/23 17:01:28;;;;;;;0.93;0.93;;;33.90;27.90;;;32.26;24.94;100805.47;12222359;19;20021;-81
2022/06/23 17:05:39;;;;;;;1.77;0.82;;;33.80;28.10;;;32.41;24.48;100843.75;12223334;19;20014;-83
2022/06/23 17:09:56;;;;;;;1.35;0.90;;;33.70;27.70;;;32.39;24.89;100853.97;12219880;19;20014;-81
2022/06/23 17:14:14;;;;;;;0.82;0.82;;;33.60;27.70;;;32.16;24.89;100833.84;12219791;19;20022;-81
2022/06/23 17:18:31;;;;;;;1.00;0.88;;;33.50;27.60;;;32.23;24.57;100844.56;12220132;19;20029;-81
2022/06/23 17:22:44;;;;;;;1.67;0.80;;;33.50;27.70;;;32.23;24.94;100854.56;12217394;19;20030;-81
2022/06/23 17:27:27;;;;;;;1.95;0.98;;;33.40;28.00;;;32.21;25.17;100856.66;12218396;19;20022;-82
2022/06/23 17:31:41;;;;;;;1.15;1.00;;;33.40;28.10;;;31.95;24.69;100818.06;12218963;19;20085;-79
2022/06/23 17:36:04;;;;;;;0.70;0.70;;;33.40;27.90;;;32.05;24.66;100855.38;12220738;19;20487;-81
2022/06/23 17:45:10;;;;;;;0.80;0.73;;;33.50;28.20;;;31.92;25.47;100859.03;12221369;19;20015;-81
2022/06/23 17:49:39;;;;;;;1.05;1.00;;;33.10;28.40;;;31.85;24.87;100859.06;12216826;19;20051;-80
2022/06/23 17:53:55;;;;;;;3.45;0.90;;;33.10;28.00;;;31.77;25.11;100866.63;12230507;19;20535;-81
2022/06/23 17:58:05;;;;;;;1.88;1.10;;;33.20;28.40;;;31.71;25.31;100868.34;12228573;19;20022;-80
2022/06/23 18:02:26;;;;;;;1.23;0.90;;;33.00;28.60;;;31.55;25.85;100863.50;12232337;19;20044;-80
2022/06/23 18:06:30;;;;;;;1.17;1.08;;;32.90;28.70;;;31.44;25.52;100857.75;12228539;19;20640;-81
2022/06/23 18:10:58;;;;;;;0.90;0.90;;;32.80;28.60;;;31.22;25.95;100837.56;12229302;19;20086;-80
2022/06/23 18:15:32;;;;;;;3.38;1.08;;;32.70;28.70;;;31.14;25.74;100835.94;12232205;19;20011;-81